createdAt,value
2022-08-14T00:02:08.710Z,23.60
2022-08-14T00:05:13.852Z,23.50
2022-08-14T00:08:18.282Z,23.50
2022-08-14T00:11:43.659Z,23.50
2022-08-14T00:14:48.366Z,23.40
2022-08-14T00:17:58.923Z,23.40
2022-08-14T00:21:01.981Z,23.40
2022-08-14T00:24:07.871Z,23.40
2022-08-14T00:27:12.992Z,23.40
2022-08-14T00:30:20.386Z,23.30
2022-08-14T00:33:23.367Z,23.20
2022-08-14T00:36:48.544Z,23.20
2022-08-14T00:39:53.989Z,23.30
2022-08-14T00:42:57.142Z,23.20
2022-08-14T00:46:05.355Z,23.20
2022-08-14T00:49:14.479Z,23.20
2022-08-14T00:52:18.896Z,23.20
2022-08-14T00:55:23.511Z,23.20
2022-08-14T00:58:33.380Z,23.10
2022-08-14T01:01:37.212Z,23.20
2022-08-14T01:04:53.716Z,23.20
2022-08-14T01:07:59.428Z,23.10
2022-08-14T01:11:04.904Z,23.10
2022-08-14T01:14:25.654Z,23.10
2022-08-14T01:17:49.372Z,23.10
2022-08-14T01:21:08.880Z,23.10
2022-08-14T01:24:22.840Z,23.00
2022-08-14T01:27:53.829Z,23.00
2022-08-14T01:30:59.301Z,23.00
2022-08-14T01:35:20.189Z,23.00
2022-08-14T01:37:28.802Z,22.90
2022-08-14T01:40:41.093Z,22.90
2022-08-14T01:43:56.384Z,22.90
2022-08-14T01:47:02.386Z,22.90
2022-08-14T01:50:11.240Z,22.90
2022-08-14T01:53:17.814Z,22.90
2022-08-14T01:56:30.413Z,22.90
2022-08-14T01:59:38.235Z,22.80
2022-08-14T02:02:42.837Z,22.90
2022-08-14T02:05:50.051Z,22.90
2022-08-14T02:08:55.106Z,22.80
2022-08-14T02:11:59.830Z,22.80
2022-08-14T02:15:09.124Z,22.70
2022-08-14T02:18:15.066Z,22.80
2022-08-14T02:21:19.368Z,22.80
2022-08-14T02:24:39.014Z,22.80
2022-08-14T02:28:22.971Z,22.80
2022-08-14T02:31:09.435Z,22.80
2022-08-14T02:34:22.137Z,22.70
2022-08-14T02:37:46.412Z,22.70
2022-08-14T02:40:51.522Z,22.70
2022-08-14T02:44:00.796Z,22.70
2022-08-14T02:47:04.598Z,22.70
2022-08-14T02:50:17.890Z,22.70
2022-08-14T02:53:21.041Z,22.60
2022-08-14T02:57:15.614Z,22.60
2022-08-14T02:59:52.562Z,22.60
2022-08-14T03:02:58.903Z,22.50
2022-08-14T03:06:02.834Z,22.50
2022-08-14T03:09:06.431Z,22.50
2022-08-14T03:12:09.994Z,22.50
2022-08-14T03:15:16.318Z,22.50
2022-08-14T03:18:32.133Z,22.50
2022-08-14T03:21:37.560Z,22.40
2022-08-14T03:24:43.948Z,22.40
2022-08-14T03:27:48.418Z,22.30
2022-08-14T03:31:04.269Z,22.30
2022-08-14T03:34:24.634Z,22.30
2022-08-14T03:39:09.524Z,22.30
2022-08-14T03:40:58.946Z,22.20
2022-08-14T03:45:18.536Z,22.10
2022-08-14T03:47:56.079Z,22.10
2022-08-14T03:50:54.180Z,22.00
2022-08-14T03:54:01.502Z,22.00
2022-08-14T03:57:05.832Z,21.90
2022-08-14T04:00:13.461Z,21.90
2022-08-14T04:03:24.151Z,21.80
2022-08-14T04:06:28.424Z,21.80
2022-08-14T04:09:35.229Z,21.80
2022-08-14T04:12:40.747Z,21.70
2022-08-14T04:16:01.144Z,21.80
2022-08-14T04:19:08.569Z,21.80
2022-08-14T04:22:11.576Z,21.80
2022-08-14T04:25:14.745Z,21.80
2022-08-14T04:29:07.189Z,21.80
2022-08-14T04:32:58.211Z,21.80
2022-08-14T04:35:07.544Z,21.80
2022-08-14T04:38:36.976Z,21.80
2022-08-14T04:41:58.490Z,21.80
2022-08-14T04:45:03.725Z,21.80
2022-08-14T04:48:13.856Z,21.70
2022-08-14T04:51:55.637Z,21.80
2022-08-14T04:54:59.543Z,21.80
2022-08-14T04:58:05.445Z,21.70
2022-08-14T05:01:12.933Z,21.80
2022-08-14T05:04:24.832Z,21.90
2022-08-14T05:07:46.723Z,21.90
2022-08-14T05:10:54.643Z,21.90
2022-08-14T05:14:17.034Z,21.90
2022-08-14T05:17:32.019Z,21.90
2022-08-14T05:21:57.031Z,21.80
2022-08-14T05:24:17.735Z,21.80
2022-08-14T05:27:22.647Z,21.90
2022-08-14T05:30:27.308Z,22.00
2022-08-14T05:33:33.043Z,22.10
2022-08-14T05:36:36.365Z,22.10
2022-08-14T05:39:44.366Z,22.30
2022-08-14T05:42:52.872Z,22.50
2022-08-14T05:45:56.157Z,22.70
2022-08-14T05:49:02.537Z,22.70
2022-08-14T05:52:09.914Z,22.70
2022-08-14T05:55:14.773Z,22.60
2022-08-14T05:58:20.891Z,22.80
2022-08-14T06:01:37.041Z,23.20
2022-08-14T06:04:40.157Z,23.70
2022-08-14T06:07:43.218Z,24.10
2022-08-14T06:10:50.466Z,24.10
2022-08-14T06:13:53.501Z,23.90
2022-08-14T06:16:57.264Z,23.90
2022-08-14T06:20:00.751Z,23.70
2022-08-14T06:23:04.169Z,23.80
2022-08-14T06:26:08.663Z,23.80
2022-08-14T06:29:12.885Z,24.00
2022-08-14T06:32:38.412Z,24.30
2022-08-14T06:35:40.210Z,24.30
2022-08-14T06:38:43.474Z,24.40
2022-08-14T06:41:57.700Z,24.40
2022-08-14T06:45:02.994Z,24.20
2022-08-14T06:48:14.234Z,24.20
2022-08-14T06:51:20.976Z,24.00
2022-08-14T06:54:31.747Z,23.90
2022-08-14T06:57:42.075Z,23.90
2022-08-14T07:01:05.771Z,23.90
2022-08-14T07:04:26.563Z,23.90
2022-08-14T07:07:37.638Z,24.10
2022-08-14T07:10:43.609Z,24.10
2022-08-14T07:13:48.883Z,24.20
2022-08-14T07:16:53.723Z,24.20
2022-08-14T07:19:56.869Z,24.30
2022-08-14T07:23:07.352Z,24.30
2022-08-14T07:26:13.174Z,24.50
2022-08-14T07:29:20.683Z,24.70
2022-08-14T07:32:34.091Z,25.00
2022-08-14T07:35:57.434Z,25.10
2022-08-14T07:39:03.210Z,25.30
2022-08-14T07:42:15.151Z,25.40
2022-08-14T07:45:24.597Z,25.50
2022-08-14T07:48:27.626Z,25.50
2022-08-14T07:51:34.174Z,25.60
2022-08-14T07:54:42.985Z,25.80
2022-08-14T07:57:52.002Z,25.90
2022-08-14T08:00:58.278Z,26.50
2022-08-14T08:04:16.726Z,26.90
2022-08-14T08:07:22.125Z,27.30
2022-08-14T08:10:57.198Z,27.30
2022-08-14T08:13:58.451Z,27.20
2022-08-14T08:17:03.003Z,27.00
2022-08-14T08:20:12.004Z,26.90
2022-08-14T08:23:20.567Z,26.80
2022-08-14T08:26:30.727Z,26.70
2022-08-14T08:29:35.167Z,26.70
2022-08-14T08:32:45.835Z,26.90
2022-08-14T08:35:50.627Z,27.10
2022-08-14T08:39:18.061Z,27.30
2022-08-14T08:42:31.396Z,27.50
2022-08-14T08:45:44.906Z,28.00
2022-08-14T08:48:54.084Z,28.20
2022-08-14T08:52:04.145Z,28.20
2022-08-14T08:55:08.273Z,28.10
2022-08-14T08:58:16.417Z,28.00
2022-08-14T09:01:29.288Z,28.10
2022-08-14T09:04:37.349Z,28.10
2022-08-14T09:07:49.182Z,28.10
2022-08-14T09:10:56.320Z,28.10
2022-08-14T09:14:00.484Z,28.10
2022-08-14T09:17:03.627Z,28.20
2022-08-14T09:20:11.695Z,28.30
2022-08-14T09:23:16.784Z,28.40
2022-08-14T09:26:21.313Z,28.50
2022-08-14T09:29:24.742Z,28.50
2022-08-14T09:32:58.748Z,28.70
2022-08-14T09:36:40.225Z,28.80
2022-08-14T09:39:57.693Z,28.90
2022-08-14T09:43:11.053Z,28.90
2022-08-14T09:46:17.118Z,28.90
2022-08-14T09:49:32.876Z,28.90
2022-08-14T09:52:55.028Z,28.90
2022-08-14T09:56:01.770Z,28.90
2022-08-14T09:59:15.060Z,28.90
2022-08-14T10:02:24.039Z,29.00
2022-08-14T10:05:31.462Z,29.00
2022-08-14T10:08:44.634Z,29.10
2022-08-14T10:11:59.136Z,29.20
2022-08-14T10:15:02.897Z,29.20
2022-08-14T10:18:09.476Z,29.30
2022-08-14T10:21:20.579Z,29.30
2022-08-14T10:24:36.102Z,29.30
2022-08-14T10:27:40.777Z,29.30
2022-08-14T10:30:47.911Z,29.40
2022-08-14T10:34:03.043Z,29.50
2022-08-14T10:37:14.262Z,29.60
2022-08-14T10:40:38.743Z,29.60
2022-08-14T10:44:07.770Z,29.60
2022-08-14T10:47:39.643Z,29.60
2022-08-14T10:51:00.148Z,29.50
2022-08-14T10:54:35.027Z,29.40
2022-08-14T10:57:36.123Z,29.30
2022-08-14T11:00:47.093Z,29.20
2022-08-14T11:03:57.003Z,29.20
2022-08-14T11:07:00.309Z,29.20
2022-08-14T11:10:07.694Z,29.10
2022-08-14T11:13:17.345Z,29.20
2022-08-14T11:16:21.264Z,29.10
2022-08-14T11:19:25.496Z,29.10
2022-08-14T11:22:56.055Z,29.20
2022-08-14T11:25:54.848Z,29.20
2022-08-14T11:29:03.454Z,29.30
2022-08-14T11:32:09.465Z,29.40
2022-08-14T11:35:16.072Z,29.30
2022-08-14T11:38:19.990Z,29.30
2022-08-14T11:41:23.256Z,29.30
2022-08-14T11:44:45.862Z,29.30
2022-08-14T11:48:12.975Z,29.30
2022-08-14T11:51:16.456Z,29.30
2022-08-14T11:54:20.107Z,29.30
2022-08-14T11:57:23.674Z,29.30
2022-08-14T12:00:31.715Z,29.30
2022-08-14T12:03:46.938Z,29.10
2022-08-14T12:06:56.493Z,28.90
2022-08-14T12:09:59.565Z,28.90
2022-08-14T12:13:13.915Z,29.00
2022-08-14T12:16:22.750Z,28.90
2022-08-14T12:19:26.408Z,28.90
2022-08-14T12:22:43.876Z,28.90
2022-08-14T12:26:01.409Z,28.90
2022-08-14T12:29:12.956Z,28.80
2022-08-14T12:32:17.681Z,28.90
2022-08-14T12:35:20.689Z,29.00
2022-08-14T12:38:33.999Z,29.20
2022-08-14T12:41:39.051Z,29.50
2022-08-14T12:44:43.765Z,29.90
2022-08-14T12:47:51.471Z,30.10
2022-08-14T12:50:54.705Z,30.60
2022-08-14T12:53:59.622Z,31.20
2022-08-14T12:57:09.191Z,32.00
2022-08-14T13:00:22.540Z,32.20
2022-08-14T13:03:30.139Z,32.80
2022-08-14T13:06:35.312Z,33.70
2022-08-14T13:09:41.059Z,35.10
2022-08-14T13:13:11.571Z,36.30
2022-08-14T13:16:20.080Z,37.00
2022-08-14T13:19:28.434Z,37.00
2022-08-14T13:22:38.508Z,37.60
2022-08-14T13:25:55.764Z,38.00
2022-08-14T13:29:03.848Z,37.40
2022-08-14T13:32:09.250Z,36.10
2022-08-14T13:35:17.581Z,36.10
2022-08-14T13:38:21.584Z,35.50
2022-08-14T13:41:34.594Z,35.40
2022-08-14T13:44:42.651Z,34.90
2022-08-14T13:47:46.707Z,34.30
2022-08-14T13:50:55.709Z,34.00
2022-08-14T13:54:10.551Z,33.70
2022-08-14T13:57:17.647Z,33.50
2022-08-14T14:00:32.997Z,33.20
2022-08-14T14:03:44.721Z,33.10
2022-08-14T14:06:52.111Z,32.90
2022-08-14T14:09:57.873Z,32.90
2022-08-14T14:13:02.393Z,32.90
2022-08-14T14:16:08.318Z,32.90
2022-08-14T14:19:13.867Z,32.90
2022-08-14T14:23:00.686Z,32.80
2022-08-14T14:25:51.146Z,32.70
2022-08-14T14:29:01.565Z,32.70
2022-08-14T14:32:05.259Z,32.50
2022-08-14T14:35:12.547Z,32.30
2022-08-14T14:38:18.006Z,32.20
2022-08-14T14:41:25.411Z,32.20
2022-08-14T14:44:33.970Z,32.10
2022-08-14T14:47:37.628Z,32.10
2022-08-14T14:50:40.655Z,31.90
2022-08-14T14:53:47.349Z,31.80
2022-08-14T14:56:54.090Z,31.60
2022-08-14T14:59:57.382Z,31.40
2022-08-14T15:03:01.185Z,31.20
2022-08-14T15:06:05.076Z,31.20
2022-08-14T15:09:10.067Z,31.20
2022-08-14T15:12:55.866Z,31.20
2022-08-14T15:15:44.157Z,31.10
2022-08-14T15:18:49.001Z,31.10
2022-08-14T15:21:52.396Z,31.00
2022-08-14T15:24:57.619Z,30.90
2022-08-14T15:28:00.840Z,30.80
2022-08-14T15:31:06.585Z,30.80
2022-08-14T15:34:43.882Z,30.80
2022-08-14T15:37:42.362Z,30.70
2022-08-14T15:40:51.436Z,30.70
2022-08-14T15:44:00.331Z,30.70
2022-08-14T15:47:06.957Z,30.60
2022-08-14T15:50:11.206Z,30.50
2022-08-14T15:53:14.547Z,30.50
2022-08-14T15:56:32.997Z,30.50
2022-08-14T15:59:59.879Z,30.50
2022-08-14T16:03:03.093Z,30.40
2022-08-14T16:06:11.103Z,30.40
2022-08-14T16:09:18.839Z,30.40
2022-08-14T16:12:41.685Z,30.40
2022-08-14T16:15:53.066Z,30.30
2022-08-14T16:18:58.158Z,30.40
2022-08-14T16:23:10.617Z,30.30
2022-08-14T16:25:34.816Z,30.20
2022-08-14T16:28:40.698Z,30.10
2022-08-14T16:31:46.903Z,30.10
2022-08-14T16:34:54.954Z,30.00
2022-08-14T16:38:00.056Z,30.00
2022-08-14T16:41:27.041Z,30.00
2022-08-14T16:44:37.737Z,30.00
2022-08-14T16:47:44.220Z,29.90
2022-08-14T16:50:50.984Z,29.90
2022-08-14T16:53:54.587Z,29.80
2022-08-14T16:57:13.603Z,29.80
2022-08-14T17:00:43.753Z,29.70
2022-08-14T17:04:04.655Z,29.70
2022-08-14T17:07:11.753Z,29.60
2022-08-14T17:10:27.813Z,29.60
2022-08-14T17:13:59.855Z,29.50
2022-08-14T17:17:00.752Z,29.40
2022-08-14T17:20:08.827Z,29.30
2022-08-14T17:23:31.519Z,29.20
2022-08-14T17:26:37.581Z,29.10
2022-08-14T17:29:44.341Z,29.10
2022-08-14T17:33:12.630Z,29.00
2022-08-14T17:39:41.483Z,28.90
2022-08-14T17:43:02.135Z,28.70
2022-08-14T17:46:06.358Z,28.70
2022-08-14T17:49:17.934Z,28.70
2022-08-14T17:52:36.441Z,28.60
2022-08-14T17:56:02.736Z,28.40
2022-08-14T17:59:07.431Z,28.40
2022-08-14T18:02:16.371Z,28.30
2022-08-14T18:06:06.433Z,28.20
2022-08-14T18:08:47.519Z,28.20
2022-08-14T18:12:03.926Z,28.10
2022-08-14T18:15:16.236Z,28.00
2022-08-14T18:18:20.852Z,27.90
2022-08-14T18:21:56.095Z,27.80
2022-08-14T18:24:51.139Z,27.70
2022-08-14T18:27:57.332Z,27.60
2022-08-14T18:31:43.465Z,27.50
2022-08-14T18:34:50.962Z,27.50
2022-08-14T18:38:25.540Z,27.30
2022-08-14T18:41:37.241Z,27.20
2022-08-14T18:45:12.537Z,27.20
2022-08-14T18:48:50.279Z,27.20
2022-08-14T18:52:18.688Z,27.10
2022-08-14T18:55:53.778Z,27.00
2022-08-14T18:58:59.007Z,27.00
2022-08-14T19:02:35.915Z,26.90
2022-08-14T19:05:58.401Z,26.80
2022-08-14T19:09:03.812Z,26.70
2022-08-14T19:12:10.615Z,26.70
2022-08-14T19:15:20.838Z,26.70
2022-08-14T19:18:30.923Z,26.60
2022-08-14T19:21:43.583Z,26.50
2022-08-14T19:24:50.286Z,26.40
2022-08-14T19:28:27.402Z,26.40
2022-08-14T19:31:41.986Z,26.40
2022-08-14T19:34:52.281Z,26.30
2022-08-14T19:37:57.574Z,26.30
2022-08-14T19:41:02.020Z,26.30
2022-08-14T19:44:12.724Z,26.20
2022-08-14T19:47:17.869Z,26.20
2022-08-14T19:50:38.783Z,26.10
2022-08-14T19:53:56.390Z,26.10
2022-08-14T19:56:59.816Z,26.10
2022-08-14T20:00:29.117Z,26.10
2022-08-14T20:04:00.722Z,26.10
2022-08-14T20:07:06.448Z,26.00
2022-08-14T20:11:12.379Z,26.00
2022-08-14T20:14:01.014Z,26.00
2022-08-14T20:17:07.081Z,26.00
2022-08-14T20:20:20.921Z,26.00
2022-08-14T20:23:38.436Z,26.00
2022-08-14T20:26:43.315Z,26.00
2022-08-14T20:30:29.690Z,25.90
2022-08-14T20:33:47.922Z,25.90
2022-08-14T20:37:01.759Z,25.90
2022-08-14T20:40:23.362Z,25.80
2022-08-14T20:43:46.819Z,25.80
2022-08-14T20:46:50.087Z,25.70
2022-08-14T20:50:17.061Z,25.70
2022-08-14T20:53:31.561Z,25.60
2022-08-14T20:56:37.618Z,25.60
2022-08-14T20:59:43.467Z,25.50
2022-08-14T21:02:50.904Z,25.50
2022-08-14T21:05:56.616Z,25.40
2022-08-14T21:09:03.249Z,25.40
2022-08-14T21:12:08.420Z,25.30
2022-08-14T21:15:32.206Z,25.30
2022-08-14T21:18:44.925Z,25.20
2022-08-14T21:21:55.030Z,25.20
2022-08-14T21:25:02.034Z,25.20
2022-08-14T21:28:29.253Z,25.10
2022-08-14T21:31:33.348Z,25.10
2022-08-14T21:34:41.941Z,25.00
2022-08-14T21:37:58.568Z,25.00
2022-08-14T21:41:42.506Z,25.00
2022-08-14T21:44:42.577Z,24.90
2022-08-14T21:47:47.294Z,24.90
2022-08-14T21:51:00.720Z,24.90
2022-08-14T21:54:30.243Z,24.80
2022-08-14T21:58:46.099Z,24.80
2022-08-14T22:00:58.767Z,24.70
2022-08-14T22:04:06.906Z,24.60
2022-08-14T22:07:29.163Z,24.60
2022-08-14T22:10:32.699Z,24.60
2022-08-14T22:13:35.787Z,24.50
2022-08-14T22:17:01.585Z,24.50
2022-08-14T22:20:16.326Z,24.40
2022-08-14T22:23:21.095Z,24.40
2022-08-14T22:26:30.441Z,24.30
2022-08-14T22:29:35.480Z,24.20
2022-08-14T22:32:56.613Z,24.20
2022-08-14T22:36:25.260Z,24.10
2022-08-14T22:40:17.516Z,24.10
2022-08-14T22:43:00.528Z,24.00
2022-08-14T22:46:06.198Z,24.00
2022-08-14T22:50:31.086Z,24.00
2022-08-14T22:52:49.222Z,23.90
2022-08-14T22:55:54.134Z,23.80
2022-08-14T22:58:58.822Z,23.80
2022-08-14T23:02:11.612Z,23.80
2022-08-14T23:05:15.577Z,23.80
2022-08-14T23:08:56.376Z,23.80
2022-08-14T23:11:46.853Z,23.70
2022-08-14T23:14:50.319Z,23.60
2022-08-14T23:17:54.391Z,23.60
2022-08-14T23:20:57.638Z,23.60
2022-08-14T23:24:00.654Z,23.50
2022-08-14T23:27:09.221Z,23.50
2022-08-14T23:30:31.723Z,23.50
2022-08-14T23:33:41.916Z,23.40
2022-08-14T23:36:54.058Z,23.40
2022-08-14T23:39:58.432Z,23.40
2022-08-14T23:43:08.252Z,23.40
2022-08-14T23:46:14.874Z,23.30
2022-08-14T23:49:20.279Z,23.20
2022-08-14T23:52:50.426Z,23.20
2022-08-14T23:55:47.273Z,23.20
2022-08-14T23:58:59.435Z,23.20
